Huvudsida
METAR-TAF:

METAR-TAF

Flygplatser :

Arlanda

Stockholm-Arlanda, Sverige

latitud: 59-39N, longitud: 017-57E, höjd: 38 m

Aktuellt väderrapport

Denna rapport gjordes för 23 minuter sedan, klockan 12:20 UTC
Vind 14 kt från sydost
Temperatur 17°C
Fuktighet 39%
Tryck 1019 hPa
Sikt 10 km eller mer
Inga moln under 1 500 m eller inga cumulonimbus

METAR: ESSA 251220Z 13014KT CAVOK 17/03 Q1019 NOSIG

Tid: 14:43 (12:43 UTC)

Väderprognos

Denna rapport gjordes för 1 timme och 13 minuter sedan, klockan 11:30 UTC
Prognos gäller från 25 kl. 12 UTC till 26 kl. 12 UTC
Vind 12 kt från sydost
Sikt 10 km eller mer
Inga moln under 1 500 m eller inga cumulonimbus
Blir
från 25 kl. 17 UTC till 25 kl. 19 UTC
Vind 7 kt från ost/nordost

TAF: ESSA 251130Z 2512/2612 14012KT CAVOK BECMG 2517/2519 06007KT

Aktuella väderrapporter och prognoser från 4000 flygplatser (METAR- och TAF-rapporter).

De tillgängliga stationerna syns som gula och röda prickar på kartan.

För musen över prickarna för att se namnen på stationerna.

Klicka sedan för att få väderrapporter och prognoser.

För att ändra kartan: Klicka på de gröna knapparna med ett svart kors på för att zooma in; den gröna knappen med ett streck på för att zooma ut; eller på de gröna pilarna för angränsande kartor.


METAR-TAF: